Time;durP1;ratioP1;P1;durP2;ratioP2;P2;SDS_P1;SDS_P2;PMS_P1;PMS_P2;Temp;Humidity;BMP_temperature;BMP_pressure;BME280_temperature;BME280_humidity;BME280_pressure;Samples;Min_cycle;Max_cycle;Signal;HPM_P1;HPM_P2
2022/09/26 00:01:41;;;;;;;1.23;1.23;;;;;;;13.55;81.96;99364.88;5040614;28;20280;-74
2022/09/26 00:04:22;;;;;;;0.50;0.50;;;;;;;13.51;82.11;99355.59;5045642;28;20245;-74
2022/09/26 00:06:49;;;;;;;0.60;0.60;;;;;;;13.59;82.25;99369.00;5038109;28;20704;-74
2022/09/26 00:09:17;;;;;;;2.47;2.37;;;;;;;13.54;82.03;99354.63;5035685;28;20186;-74
2022/09/26 00:11:45;;;;;;;0.60;0.60;;;;;;;13.57;82.31;99363.06;5036130;28;20641;-74
2022/09/26 00:14:16;;;;;;;0.50;0.50;;;;;;;13.54;82.38;99364.91;5041162;28;20665;-74
2022/09/26 00:16:43;;;;;;;0.40;0.40;;;;;;;13.54;81.98;99367.50;5043619;28;20197;-74
2022/09/26 00:19:10;;;;;;;0.50;0.50;;;;;;;13.55;82.55;99362.28;5038521;28;20197;-74
2022/09/26 00:21:38;;;;;;;0.80;0.80;;;;;;;13.39;82.56;99356.13;5039837;28;20185;-74
2022/09/26 00:24:05;;;;;;;0.50;0.50;;;;;;;13.45;82.74;99355.84;5035008;28;20296;-74
2022/09/26 00:26:35;;;;;;;0.60;0.60;;;;;;;13.48;82.69;99353.16;5035087;28;20727;-74
2022/09/26 00:29:06;;;;;;;0.50;0.50;;;;;;;13.37;82.55;99363.09;5035347;28;20735;-76
2022/09/26 00:31:35;;;;;;;0.63;0.63;;;;;;;13.37;82.87;99365.66;5045790;28;20585;-74
2022/09/26 00:34:03;;;;;;;0.70;0.70;;;;;;;13.40;82.35;99360.38;5039424;28;20615;-75
2022/09/26 00:36:31;;;;;;;0.63;0.63;;;;;;;13.40;82.34;99356.97;5043761;28;20231;-74
2022/09/26 00:38:57;;;;;;;0.60;0.60;;;;;;;13.41;82.43;99341.44;5037139;28;20205;-74
2022/09/26 00:41:24;;;;;;;0.50;0.50;;;;;;;13.35;82.08;99333.97;5038532;28;20200;-74
2022/09/26 00:43:53;;;;;;;0.60;0.60;;;;;;;13.31;82.25;99329.84;5034989;28;20193;-74
2022/09/26 00:46:31;;;;;;;0.50;0.50;;;;;;;13.25;82.27;99337.03;5043610;28;20224;-74
2022/09/26 00:49:06;;;;;;;0.60;0.60;;;;;;;13.23;82.60;99339.66;5035039;28;20208;-74
2022/09/26 00:51:35;;;;;;;0.50;0.50;;;;;;;13.24;82.50;99345.63;5042637;28;20431;-74
2022/09/26 00:54:03;;;;;;;0.80;0.80;;;;;;;13.23;82.58;99346.53;5043020;28;20216;-75
2022/09/26 00:56:35;;;;;;;0.47;0.47;;;;;;;13.21;82.64;99350.91;5037221;28;20204;-74
2022/09/26 00:59:08;;;;;;;1.07;1.07;;;;;;;13.13;81.60;99328.06;5039626;28;20285;-75
2022/09/26 01:01:36;;;;;;;0.70;0.70;;;;;;;13.12;82.40;99336.66;5044663;28;20206;-74
2022/09/26 01:04:06;;;;;;;0.53;0.53;;;;;;;13.03;82.54;99316.44;5038730;28;20229;-74
2022/09/26 01:06:33;;;;;;;0.60;0.60;;;;;;;13.12;82.32;99336.66;5043092;28;20219;-74
2022/09/26 01:09:07;;;;;;;0.43;0.43;;;;;;;13.10;82.06;99333.34;5043233;28;20259;-74
2022/09/26 01:11:35;;;;;;;0.50;0.50;;;;;;;13.07;82.23;99330.84;5043122;28;20209;-74
2022/09/26 01:14:03;;;;;;;0.60;0.60;;;;;;;12.91;83.06;99332.38;5037301;28;20205;-75
2022/09/26 01:16:32;;;;;;;0.57;0.57;;;;;;;12.93;83.19;99326.25;5044681;28;20193;-74
2022/09/26 01:19:04;;;;;;;0.60;0.60;;;;;;;12.89;83.18;99317.00;5038555;28;20189;-74
2022/09/26 01:21:56;;;;;;;0.53;0.53;;;;;;;12.95;82.59;99324.47;5042797;28;20722;-74
2022/09/26 01:24:40;;;;;;;0.70;0.70;;;;;;;12.82;83.31;99317.31;5026421;28;20201;-74
2022/09/26 01:27:43;;;;;;;0.60;0.60;;;;;;;12.85;83.50;99343.75;5034952;28;20225;-75
2022/09/26 01:30:14;;;;;;;0.60;0.60;;;;;;;12.77;83.82;99339.81;5041668;28;20194;-75
2022/09/26 01:33:20;;;;;;;0.57;0.57;;;;;;;12.71;83.94;99340.06;5034759;28;20193;-74
2022/09/26 01:36:20;;;;;;;0.50;0.50;;;;;;;12.73;83.94;99346.00;5050891;28;20197;-74
2022/09/26 01:38:58;;;;;;;0.57;0.57;;;;;;;12.74;83.50;99345.06;5038207;28;20198;-74
2022/09/26 01:41:36;;;;;;;0.53;0.53;;;;;;;12.62;84.00;99343.84;5040038;28;20224;-74
2022/09/26 01:44:14;;;;;;;0.40;0.40;;;;;;;12.58;84.01;99345.69;5035198;28;20205;-74
2022/09/26 01:46:48;;;;;;;0.50;0.50;;;;;;;12.55;84.25;99345.81;5044845;28;20306;-73
2022/09/26 01:49:23;;;;;;;0.50;0.50;;;;;;;12.61;84.19;99361.00;5037020;28;20703;-73
2022/09/26 01:51:54;;;;;;;0.50;0.50;;;;;;;12.61;84.04;99355.84;5035860;28;20232;-73
2022/09/26 01:54:27;;;;;;;0.60;0.60;;;;;;;12.62;84.14;99357.53;5038317;28;20204;-73
2022/09/26 01:56:58;;;;;;;0.60;0.60;;;;;;;12.36;84.30;99337.13;5037844;28;20216;-74
2022/09/26 01:59:29;;;;;;;0.40;0.40;;;;;;;12.53;84.34;99363.03;5037951;28;20292;-74
2022/09/26 02:02:01;;;;;;;0.43;0.43;;;;;;;12.54;84.27;99359.56;5038414;28;20255;-73
2022/09/26 02:04:34;;;;;;;0.57;0.57;;;;;;;12.49;84.40;99356.34;5039300;28;20627;-74
2022/09/26 02:07:07;;;;;;;0.60;0.60;;;;;;;12.43;84.77;99350.59;5041602;28;20217;-73
2022/09/26 02:09:38;;;;;;;0.60;0.60;;;;;;;12.40;85.06;99345.56;5038893;28;20204;-73
2022/09/26 02:12:08;;;;;;;0.53;0.53;;;;;;;12.37;84.89;99350.81;5037296;28;20201;-74
2022/09/26 02:14:37;;;;;;;0.47;0.47;;;;;;;12.32;85.07;99343.28;5050387;28;20200;-73
2022/09/26 02:17:10;;;;;;;0.53;0.53;;;;;;;12.35;84.88;99342.31;5040756;28;20193;-74
2022/09/26 02:19:43;;;;;;;0.70;0.70;;;;;;;12.34;85.01;99350.94;5042897;28;20189;-73
2022/09/26 02:22:10;;;;;;;0.50;0.50;;;;;;;12.35;85.04;99353.44;5037375;28;20194;-73
2022/09/26 02:24:37;;;;;;;0.50;0.50;;;;;;;12.25;84.73;99336.69;5033031;28;20685;-75
2022/09/26 02:27:05;;;;;;;0.40;0.40;;;;;;;12.31;84.55;99351.88;5033850;28;20221;-74
2022/09/26 02:29:32;;;;;;;0.50;0.50;;;;;;;12.28;84.57;99346.84;5036981;28;20196;-73
2022/09/26 02:32:11;;;;;;;0.60;0.60;;;;;;;12.21;85.14;99335.16;5034254;28;20190;-73
2022/09/26 02:34:41;;;;;;;0.70;0.70;;;;;;;12.22;84.92;99344.53;5048613;28;20279;-74
2022/09/26 02:37:08;;;;;;;0.43;0.43;;;;;;;12.22;85.28;99339.38;5037513;28;20204;-74
2022/09/26 02:39:36;;;;;;;0.50;0.50;;;;;;;12.24;85.23;99340.19;5039015;28;20198;-76
2022/09/26 02:42:13;;;;;;;0.40;0.40;;;;;;;12.26;85.38;99342.66;5032504;28;20205;-74
2022/09/26 02:44:55;;;;;;;0.50;0.50;;;;;;;12.26;85.60;99343.50;5038837;28;20283;-74
2022/09/26 02:47:37;;;;;;;0.60;0.60;;;;;;;12.21;85.77;99345.44;5039716;28;20212;-74
2022/09/26 02:50:19;;;;;;;0.50;0.50;;;;;;;12.22;85.59;99341.94;5033545;28;20186;-75
2022/09/26 02:52:59;;;;;;;0.40;0.40;;;;;;;12.17;86.01;99336.16;5039220;28;20693;-74
2022/09/26 02:55:34;;;;;;;0.50;0.50;;;;;;;12.06;86.66;99330.56;5035471;28;20213;-74
2022/09/26 02:58:09;;;;;;;0.70;0.70;;;;;;;12.08;85.95;99339.06;5035034;28;20196;-75
2022/09/26 03:00:49;;;;;;;0.67;0.67;;;;;;;12.01;86.37;99324.78;5044027;28;20215;-74
2022/09/26 03:03:22;;;;;;;0.50;0.50;;;;;;;11.95;87.02;99327.56;5037762;28;20619;-74
2022/09/26 03:05:53;;;;;;;0.70;0.70;;;;;;;11.94;86.23;99329.31;5043102;28;20225;-74
2022/09/26 03:08:24;;;;;;;0.60;0.60;;;;;;;11.87;86.67;99319.28;5044543;28;20213;-74
2022/09/26 03:10:52;;;;;;;0.57;0.57;;;;;;;11.94;86.95;99328.47;5038364;28;20208;-73
2022/09/26 03:13:20;;;;;;;0.60;0.60;;;;;;;11.90;86.88;99330.31;5038448;28;20284;-74
2022/09/26 03:15:53;;;;;;;0.53;0.53;;;;;;;11.91;87.13;99321.72;5041760;28;20614;-73
2022/09/26 03:18:24;;;;;;;0.50;0.50;;;;;;;11.87;86.78;99324.44;5040721;28;20193;-74
2022/09/26 03:20:53;;;;;;;0.60;0.60;;;;;;;11.87;87.01;99319.28;5036818;28;20193;-73
2022/09/26 03:23:22;;;;;;;0.50;0.50;;;;;;;11.88;87.24;99323.56;5032587;28;20255;-74
2022/09/26 03:25:58;;;;;;;0.60;0.60;;;;;;;11.68;87.52;99283.16;5041343;28;20280;-73
2022/09/26 03:28:25;;;;;;;0.50;0.50;;;;;;;11.83;87.61;99304.88;5033942;28;20576;-73
2022/09/26 03:30:52;;;;;;;0.50;0.50;;;;;;;11.84;87.37;99304.00;5041444;28;20205;-73
2022/09/26 03:33:19;;;;;;;0.60;0.60;;;;;;;11.81;87.41;99301.53;5048896;28;20192;-74
2022/09/26 03:35:46;;;;;;;0.47;0.47;;;;;;;11.83;87.15;99298.03;5033632;28;20204;-75
2022/09/26 03:38:14;;;;;;;0.73;0.73;;;;;;;11.82;87.37;99293.81;5034210;28;20200;-74
2022/09/26 03:40:42;;;;;;;0.50;0.50;;;;;;;11.81;87.29;99293.84;5035304;28;20604;-74
2022/09/26 03:43:10;;;;;;;0.50;0.50;;;;;;;11.79;87.45;99295.63;5033736;28;20193;-75
2022/09/26 03:45:37;;;;;;;0.60;0.60;;;;;;;11.84;87.51;99294.56;5033988;28;20229;-74
2022/09/26 03:48:05;;;;;;;0.50;0.50;;;;;;;11.86;87.28;99291.94;5032081;28;20230;-74
2022/09/26 03:50:32;;;;;;;0.70;0.70;;;;;;;11.86;87.21;99287.63;5033951;28;20197;-74
2022/09/26 03:52:59;;;;;;;0.57;0.57;;;;;;;11.86;87.26;99281.66;5036065;28;20200;-74
2022/09/26 03:55:27;;;;;;;0.70;0.70;;;;;;;11.80;87.41;99292.16;5037387;28;20204;-74
2022/09/26 03:57:54;;;;;;;0.57;0.57;;;;;;;11.75;88.13;99294.06;5033509;28;20684;-74
2022/09/26 04:00:21;;;;;;;0.50;0.50;;;;;;;11.76;87.98;99281.16;5035454;28;20204;-73
2022/09/26 04:02:48;;;;;;;0.60;0.60;;;;;;;11.80;87.78;99275.03;5042729;28;20291;-75
2022/09/26 04:05:15;;;;;;;0.50;0.50;;;;;;;11.82;87.43;99280.13;5040871;28;20224;-74
2022/09/26 04:07:43;;;;;;;0.60;0.60;;;;;;;11.81;87.79;99273.28;5040902;28;20239;-74
2022/09/26 04:10:10;;;;;;;0.50;0.50;;;;;;;11.78;87.88;99273.41;5037951;28;20194;-74
2022/09/26 04:12:39;;;;;;;0.50;0.50;;;;;;;11.79;88.11;99281.06;5038581;28;20258;-74
2022/09/26 04:15:07;;;;;;;0.53;0.53;;;;;;;11.79;88.96;99282.81;5043825;28;20201;-75
2022/09/26 04:17:34;;;;;;;0.80;0.80;;;;;;;11.81;88.44;99281.84;5043136;28;20308;-74
2022/09/26 04:20:02;;;;;;;1.90;1.90;;;;;;;11.74;89.36;99276.97;5034983;28;20759;-74
2022/09/26 04:22:29;;;;;;;0.40;0.40;;;;;;;11.72;89.68;99278.78;5035225;28;20232;-75
2022/09/26 04:24:55;;;;;;;0.47;0.47;;;;;;;11.73;90.04;99295.88;5031429;28;20211;-75
2022/09/26 04:27:25;;;;;;;0.60;0.60;;;;;;;11.72;89.92;99284.75;5032238;28;20252;-72
2022/09/26 04:29:56;;;;;;;0.60;0.60;;;;;;;11.73;89.48;99288.97;5035561;28;20692;-72
2022/09/26 04:32:23;;;;;;;0.50;0.50;;;;;;;11.75;89.27;99289.78;5042771;28;20330;-72
2022/09/26 04:34:49;;;;;;;0.60;0.60;;;;;;;11.70;88.50;99280.50;5035534;28;20197;-73
2022/09/26 04:37:16;;;;;;;0.60;0.60;;;;;;;11.75;87.32;99294.91;5034511;28;20668;-73
2022/09/26 04:39:43;;;;;;;0.50;0.50;;;;;;;11.72;87.29;99283.91;5030774;28;20198;-73
2022/09/26 04:42:10;;;;;;;0.50;0.50;;;;;;;11.67;87.39;99280.63;5031813;28;20201;-72
2022/09/26 04:44:37;;;;;;;0.50;0.50;;;;;;;11.70;87.24;99277.94;5035287;28;20251;-72
2022/09/26 04:47:06;;;;;;;0.50;0.50;;;;;;;11.73;86.86;99285.59;5048184;28;20307;-72
2022/09/26 04:49:32;;;;;;;0.60;0.60;;;;;;;11.67;87.02;99296.88;5038630;28;20681;-72
2022/09/26 04:51:59;;;;;;;0.70;0.70;;;;;;;11.63;87.66;99289.34;5040060;28;20737;-73
2022/09/26 04:54:26;;;;;;;0.40;0.40;;;;;;;11.63;87.90;99279.09;5035414;28;20614;-73
2022/09/26 04:56:53;;;;;;;0.50;0.50;;;;;;;11.70;88.22;99285.66;5038303;28;20184;-72
2022/09/26 04:59:20;;;;;;;0.50;0.50;;;;;;;11.76;87.56;99285.47;5037972;28;20231;-72
2022/09/26 05:01:47;;;;;;;0.53;0.53;;;;;;;11.80;88.30;99297.28;5042661;28;20699;-72
2022/09/26 05:04:15;;;;;;;0.70;0.70;;;;;;;11.84;88.22;99297.13;5040265;28;20224;-72
2022/09/26 05:06:41;;;;;;;0.50;0.50;;;;;;;12.00;87.79;99305.09;5034761;28;20217;-72
2022/09/26 05:09:08;;;;;;;0.60;0.60;;;;;;;12.09;87.90;99315.03;5040470;28;20192;-72
2022/09/26 05:11:35;;;;;;;0.70;0.70;;;;;;;12.23;87.67;99317.09;5047421;28;20626;-72
2022/09/26 05:14:03;;;;;;;0.40;0.40;;;;;;;12.43;87.43;99319.75;5041607;28;20193;-72
2022/09/26 05:16:30;;;;;;;0.40;0.40;;;;;;;12.53;88.37;99321.91;5039567;28;20212;-72
2022/09/26 05:18:57;;;;;;;0.50;0.50;;;;;;;12.63;88.74;99328.31;5034852;28;20205;-75
2022/09/26 05:21:25;;;;;;;0.50;0.50;;;;;;;12.48;88.64;99282.66;5043772;28;20197;-72
2022/09/26 05:26:41;;;;;;;0.50;0.50;;;;;;;13.01;86.89;99318.25;5043736;28;20275;-71
2022/09/26 05:29:08;;;;;;;0.50;0.50;;;;;;;13.09;86.69;99311.91;5045160;28;20276;-71
2022/09/26 05:31:36;;;;;;;0.50;0.50;;;;;;;13.17;88.19;99309.00;5044989;28;20196;-71
2022/09/26 05:34:04;;;;;;;0.50;0.50;;;;;;;13.26;88.52;99302.63;5044441;28;20198;-71
2022/09/26 05:36:32;;;;;;;0.50;0.50;;;;;;;13.36;87.85;99309.06;5045054;28;20297;-71
2022/09/26 05:39:00;;;;;;;0.50;0.50;;;;;;;13.42;87.48;99298.50;5039837;28;20627;-71
2022/09/26 05:41:28;;;;;;;0.50;0.50;;;;;;;13.57;88.77;99288.34;5043707;28;20208;-72
2022/09/26 05:43:55;;;;;;;0.50;0.50;;;;;;;13.70;88.08;99293.00;5045397;28;20300;-74
2022/09/26 05:46:23;;;;;;;0.57;0.57;;;;;;;13.92;88.07;99304.84;5040352;28;20210;-71
2022/09/26 05:48:50;;;;;;;0.70;0.70;;;;;;;14.11;86.81;99305.69;5041716;28;20196;-72
2022/09/26 05:51:20;;;;;;;0.50;0.50;;;;;;;14.35;85.38;99303.72;5040912;28;20297;-71
2022/09/26 05:53:49;;;;;;;0.40;0.40;;;;;;;14.61;83.58;99305.91;5044172;28;20680;-71
2022/09/26 05:56:19;;;;;;;0.43;0.43;;;;;;;14.79;83.38;99299.03;5035892;28;20205;-71
2022/09/26 05:58:46;;;;;;;0.50;0.50;;;;;;;15.05;82.97;99284.84;5044847;28;20225;-71
2022/09/26 06:01:15;;;;;;;0.60;0.60;;;;;;;15.23;81.25;99283.88;5039480;28;20194;-71
2022/09/26 06:03:43;;;;;;;0.60;0.60;;;;;;;15.48;80.63;99284.34;5040666;28;20228;-75
2022/09/26 06:06:12;;;;;;;0.50;0.50;;;;;;;15.67;78.85;99277.28;5039595;28;20694;-72
2022/09/26 06:08:40;;;;;;;0.50;0.50;;;;;;;15.79;79.00;99264.63;5038946;28;20611;-72
2022/09/26 06:11:11;;;;;;;0.90;0.90;;;;;;;15.96;77.56;99264.56;5039268;28;20209;-72
2022/09/26 06:13:39;;;;;;;0.50;0.50;;;;;;;16.13;76.09;99267.06;5042750;28;20197;-72
2022/09/26 06:16:08;;;;;;;0.60;0.60;;;;;;;16.13;75.42;99270.47;5038838;28;20201;-72
2022/09/26 06:18:37;;;;;;;0.50;0.50;;;;;;;16.22;75.96;99282.91;5039528;28;20279;-72
2022/09/26 06:21:04;;;;;;;0.70;0.70;;;;;;;16.38;76.16;99297.59;5038272;28;20201;-72
2022/09/26 06:23:33;;;;;;;0.43;0.43;;;;;;;16.47;73.97;99295.34;5039521;28;20686;-73
2022/09/26 06:25:59;;;;;;;0.60;0.60;;;;;;;16.72;73.57;99306.00;5041091;28;20284;-71
2022/09/26 06:28:28;;;;;;;0.40;0.40;;;;;;;16.93;72.42;99296.16;5044853;28;20228;-72
2022/09/26 06:30:55;;;;;;;0.50;0.50;;;;;;;17.10;73.07;99303.81;5042091;28;20731;-72
2022/09/26 06:33:22;;;;;;;0.60;0.60;;;;;;;17.23;72.08;99309.09;5044128;28;20201;-72
2022/09/26 06:36:00;;;;;;;0.50;0.50;;;;;;;17.38;72.62;99297.84;5043644;28;20631;-72
2022/09/26 06:38:27;;;;;;;0.70;0.70;;;;;;;17.60;72.50;99295.66;5045362;28;20212;-76
2022/09/26 06:40:55;;;;;;;0.50;0.50;;;;;;;17.73;70.95;99296.59;5041941;28;20290;-72
2022/09/26 06:43:22;;;;;;;0.40;0.40;;;;;;;17.94;69.46;99303.97;5036536;28;20212;-72
2022/09/26 06:45:52;;;;;;;0.40;0.40;;;;;;;17.88;66.89;99291.38;5039514;28;20197;-71
2022/09/26 06:48:19;;;;;;;0.43;0.43;;;;;;;17.74;69.42;99279.25;5039594;28;20310;-71
2022/09/26 06:50:51;;;;;;;0.60;0.60;;;;;;;17.86;69.75;99303.63;5038392;28;20596;-72
2022/09/26 06:53:18;;;;;;;0.40;0.40;;;;;;;18.12;68.99;99302.84;5036855;28;20212;-72
2022/09/26 06:55:45;;;;;;;0.60;0.60;;;;;;;18.33;67.88;99304.06;5047311;28;20299;-72
2022/09/26 06:58:12;;;;;;;0.60;0.60;;;;;;;18.53;67.23;99311.47;5045402;28;20237;-72
2022/09/26 07:00:39;;;;;;;0.80;0.80;;;;;;;18.80;67.17;99319.25;5036611;28;20197;-72
2022/09/26 07:03:08;;;;;;;0.30;0.30;;;;;;;19.06;65.12;99312.34;5038483;28;20219;-73
2022/09/26 07:05:35;;;;;;;0.50;0.50;;;;;;;19.04;63.43;99273.47;5035417;28;20210;-73
2022/09/26 07:08:02;;;;;;;0.50;0.50;;;;;;;19.38;61.33;99305.81;5041908;28;20679;-73
2022/09/26 07:10:34;;;;;;;0.50;0.50;;;;;;;19.51;60.87;99285.91;5037019;28;20751;-72
2022/09/26 07:13:02;;;;;;;0.40;0.40;;;;;;;19.59;59.86;99287.94;5041507;28;20249;-72
2022/09/26 07:15:32;;;;;;;0.53;0.53;;;;;;;19.65;59.34;99277.97;5040840;28;20736;-72
2022/09/26 07:18:01;;;;;;;0.40;0.40;;;;;;;19.70;60.75;99275.88;5044262;28;20260;-73
2022/09/26 07:20:32;;;;;;;0.40;0.40;;;;;;;19.97;58.62;99278.31;5034861;28;20209;-74
2022/09/26 07:23:00;;;;;;;0.40;0.40;;;;;;;20.14;58.93;99284.94;5044211;28;20194;-73
2022/09/26 07:25:32;;;;;;;0.30;0.30;;;;;;;19.97;60.47;99259.28;5038817;28;20201;-73
2022/09/26 07:27:59;;;;;;;0.40;0.40;;;;;;;20.32;58.68;99294.06;5039301;28;20230;-75
2022/09/26 07:30:27;;;;;;;0.50;0.50;;;;;;;20.46;56.68;99291.28;5042990;28;20211;-74
2022/09/26 07:33:02;;;;;;;0.40;0.40;;;;;;;20.66;58.13;99295.91;5042310;28;20203;-74
2022/09/26 07:35:31;;;;;;;0.40;0.40;;;;;;;20.95;57.81;99297.19;5042667;28;20196;-74
2022/09/26 07:37:58;;;;;;;0.40;0.40;;;;;;;21.11;55.81;99304.72;5043233;28;20211;-74
2022/09/26 07:40:25;;;;;;;0.33;0.33;;;;;;;21.25;54.45;99296.72;5047621;28;20694;-72
2022/09/26 07:42:52;;;;;;;0.30;0.30;;;;;;;21.34;54.49;99284.75;5045497;28;20199;-73
2022/09/26 07:50:09;;;;;;;0.30;0.30;;;;;;;21.40;53.54;99276.44;5043884;28;20200;-73
2022/09/26 07:50:56;;;;;;;0.30;0.30;;;;;;;21.59;54.09;99266.25;5041514;28;20571;-73
2022/09/26 07:53:24;;;;;;;0.40;0.40;;;;;;;21.70;53.28;99261.06;5046307;28;20209;-73
2022/09/26 07:56:09;;;;;;;0.40;0.40;;;;;;;21.92;52.99;99276.72;5041225;28;20200;-73
2022/09/26 07:58:37;;;;;;;0.30;0.30;;;;;;;22.04;53.65;99280.13;5038398;28;20220;-73
2022/09/26 08:01:04;;;;;;;0.50;0.50;;;;;;;22.06;52.25;99277.41;5041086;28;20223;-74
2022/09/26 08:03:31;;;;;;;0.40;0.40;;;;;;;21.98;50.71;99265.78;5044200;28;20236;-73
2022/09/26 08:06:01;;;;;;;0.40;0.40;;;;;;;22.15;51.22;99263.63;5038326;28;20203;-73
2022/09/26 08:08:29;;;;;;;0.43;0.43;;;;;;;22.24;50.13;99255.03;5037524;28;20220;-74
2022/09/26 08:10:57;;;;;;;0.20;0.20;;;;;;;22.24;50.76;99245.44;5037917;28;20288;-73
2022/09/26 08:13:25;;;;;;;0.30;0.30;;;;;;;22.40;52.29;99245.03;5041400;28;20279;-74
2022/09/26 08:15:54;;;;;;;0.20;0.20;;;;;;;22.49;50.28;99241.66;5039350;28;20233;-73
2022/09/26 08:18:22;;;;;;;0.30;0.30;;;;;;;22.55;50.41;99227.28;5043462;28;20197;-73
2022/09/26 08:20:49;;;;;;;0.40;0.40;;;;;;;22.72;49.88;99224.97;5038320;28;20209;-75
2022/09/26 08:23:17;;;;;;;0.30;0.30;;;;;;;22.60;50.12;99212.03;5035252;28;20212;-73
2022/09/26 08:25:44;;;;;;;0.30;0.30;;;;;;;22.64;49.57;99196.00;5041288;28;20210;-73
2022/09/26 08:28:12;;;;;;;0.30;0.30;;;;;;;22.87;47.65;99208.03;5044204;28;20213;-73
2022/09/26 08:30:39;;;;;;;0.40;0.40;;;;;;;22.96;47.69;99212.47;5038419;28;20232;-74
2022/09/26 08:33:07;;;;;;;0.30;0.30;;;;;;;23.06;47.97;99211.69;5036467;28;20197;-73
2022/09/26 08:35:37;;;;;;;0.40;0.40;;;;;;;23.32;47.08;99212.94;5036965;28;20231;-74
2022/09/26 08:38:05;;;;;;;0.30;0.30;;;;;;;23.36;47.59;99209.91;5037990;28;20598;-73
2022/09/26 08:40:44;;;;;;;0.40;0.40;;;;;;;23.37;46.40;99205.50;5037709;28;20244;-74
2022/09/26 08:43:30;;;;;;;0.30;0.30;;;;;;;23.57;48.48;99211.66;5033326;28;20228;-73
2022/09/26 08:46:30;;;;;;;0.33;0.33;;;;;;;23.78;45.44;99218.47;5046654;28;20205;-73
2022/09/26 08:49:27;;;;;;;0.40;0.40;;;;;;;23.89;45.68;99204.47;5049469;28;20224;-75
2022/09/26 08:51:56;;;;;;;0.30;0.30;;;;;;;23.91;46.37;99208.59;5045590;28;20619;-74
2022/09/26 08:54:33;;;;;;;0.20;0.20;;;;;;;23.95;48.04;99202.13;5044572;28;20589;-73
2022/09/26 08:57:05;;;;;;;0.30;0.30;;;;;;;24.03;46.62;99194.44;5038579;28;20204;-73
2022/09/26 08:59:38;;;;;;;0.30;0.30;;;;;;;24.23;46.95;99199.72;5041142;28;20750;-74
2022/09/26 09:02:12;;;;;;;0.33;0.33;;;;;;;24.46;43.87;99190.59;5043697;28;20208;-72
2022/09/26 09:04:45;;;;;;;0.30;0.30;;;;;;;24.53;44.17;99191.69;5041408;28;20224;-72
2022/09/26 09:07:21;;;;;;;0.30;0.30;;;;;;;24.58;43.72;99172.94;5049606;28;20192;-72
2022/09/26 09:09:48;;;;;;;0.30;0.30;;;;;;;24.83;43.35;99188.09;5041838;28;20211;-72
2022/09/26 09:12:25;;;;;;;0.30;0.30;;;;;;;24.91;42.71;99178.56;5044445;28;20199;-72
2022/09/26 09:15:25;;;;;;;0.30;0.30;;;;;;;24.87;42.19;99169.34;5045889;28;20700;-71
2022/09/26 09:18:05;;;;;;;0.30;0.30;;;;;;;24.73;42.30;99163.66;5030459;28;20203;-72
2022/09/26 09:20:44;;;;;;;0.30;0.30;;;;;;;24.47;43.21;99145.91;5044983;28;20533;-73
2022/09/26 09:23:23;;;;;;;0.20;0.20;;;;;;;24.57;44.14;99151.16;5046001;28;20272;-73
2022/09/26 09:26:00;;;;;;;0.20;0.20;;;;;;;24.47;40.84;99152.94;5044227;28;20664;-72
2022/09/26 09:28:39;;;;;;;0.33;0.33;;;;;;;24.44;43.18;99155.84;5041637;28;20580;-75
2022/09/26 09:31:11;;;;;;;0.20;0.20;;;;;;;24.68;42.38;99164.09;5047572;28;20208;-72
2022/09/26 09:33:42;;;;;;;0.30;0.30;;;;;;;25.00;41.24;99153.28;5044483;28;20206;-72
2022/09/26 09:36:12;;;;;;;0.40;0.40;;;;;;;25.02;43.12;99153.97;5041413;28;20679;-72
2022/09/26 09:38:42;;;;;;;0.30;0.30;;;;;;;25.07;41.59;99143.88;5032865;28;20220;-72
2022/09/26 09:41:12;;;;;;;0.27;0.27;;;;;;;25.04;42.97;99134.47;5040009;28;20621;-72
2022/09/26 09:43:44;;;;;;;0.30;0.30;;;;;;;24.95;41.80;99119.59;5043996;28;20342;-72
2022/09/26 09:46:17;;;;;;;0.20;0.20;;;;;;;24.83;41.79;99112.91;5036180;28;20300;-72
2022/09/26 09:48:47;;;;;;;0.30;0.30;;;;;;;24.78;43.39;99122.94;5040558;28;20699;-73
2022/09/26 09:51:35;;;;;;;0.20;0.20;;;;;;;24.87;43.72;99114.28;5041429;28;20636;-73
2022/09/26 09:54:22;;;;;;;0.30;0.30;;;;;;;25.12;44.34;99109.31;5041546;28;20300;-73
2022/09/26 09:57:09;;;;;;;0.30;0.30;;;;;;;25.13;42.30;99110.97;5039146;28;20205;-72
2022/09/26 09:59:55;;;;;;;0.30;0.30;;;;;;;25.20;41.14;99109.44;5042895;28;21829;-72
2022/09/26 10:02:33;;;;;;;0.30;0.30;;;;;;;25.38;42.36;99111.13;5034981;28;20263;-73
2022/09/26 10:05:15;;;;;;;0.40;0.40;;;;;;;25.47;41.39;99105.00;5035756;28;20726;-72
2022/09/26 10:07:43;;;;;;;0.20;0.20;;;;;;;25.13;41.47;99056.72;5040347;28;20194;-75
2022/09/26 10:10:17;;;;;;;0.27;0.27;;;;;;;25.56;41.77;99100.69;5032161;28;20549;-75
2022/09/26 10:12:45;;;;;;;0.20;0.20;;;;;;;25.67;41.75;99094.41;5037201;28;20284;-75
2022/09/26 10:15:19;;;;;;;0.30;0.30;;;;;;;25.47;38.89;99085.78;5034818;28;20193;-75
2022/09/26 10:18:00;;;;;;;0.20;0.20;;;;;;;25.35;38.95;99086.97;5040334;28;20235;-73
2022/09/26 10:20:38;;;;;;;0.30;0.30;;;;;;;25.40;40.60;99082.94;5044626;28;20226;-71
2022/09/26 10:23:19;;;;;;;;;;;;;;;25.42;40.49;99081.00;5047799;28;20251;-74
2022/09/26 10:25:48;;;;;;;;;;;;;;;25.37;41.06;99079.78;5044817;28;19921;-74
2022/09/26 10:28:24;;;;;;;;;;;;;;;25.60;39.79;99081.03;5043656;28;19975;-73
2022/09/26 10:30:55;;;;;;;0.20;0.20;;;;;;;25.74;39.58;99080.53;5040767;28;20060;-74
2022/09/26 10:33:25;;;;;;;0.20;0.20;;;;;;;25.58;38.36;99080.38;5043875;28;20572;-73
2022/09/26 10:36:03;;;;;;;0.23;0.23;;;;;;;25.40;38.34;99076.84;5044032;28;20197;-73
2022/09/26 10:38:30;;;;;;;0.20;0.20;;;;;;;25.46;38.71;99065.78;5037468;28;20269;-73
2022/09/26 10:40:58;;;;;;;0.30;0.30;;;;;;;25.37;38.71;99045.66;5051604;28;20189;-73
2022/09/26 10:43:31;;;;;;;0.30;0.30;;;;;;;25.50;38.37;99061.91;5041301;28;20189;-73
2022/09/26 10:46:10;;;;;;;0.30;0.30;;;;;;;25.50;38.20;99057.47;5035588;28;20291;-75
2022/09/26 10:48:46;;;;;;;0.30;0.30;;;;;;;25.52;38.81;99059.97;5038658;28;20282;-73
2022/09/26 10:51:30;;;;;;;0.20;0.20;;;;;;;25.60;39.07;99054.78;5034589;28;20201;-73
2022/09/26 10:54:03;;;;;;;0.37;0.37;;;;;;;25.69;40.31;99056.50;5044554;28;20696;-75
2022/09/26 10:56:35;;;;;;;0.23;0.23;;;;;;;25.78;39.15;99055.63;5035833;28;20193;-73
2022/09/26 10:59:07;;;;;;;0.27;0.27;;;;;;;25.79;38.07;99041.50;5051237;28;20222;-74
2022/09/26 11:01:41;;;;;;;0.20;0.20;;;;;;;25.88;38.87;99032.72;5040583;28;20200;-74
2022/09/26 11:05:55;;;;;;;0.10;0.10;;;;;;;25.89;38.16;99039.63;5044294;28;20311;-74
2022/09/26 11:07:06;;;;;;;0.23;0.23;;;;;;;25.95;37.23;99041.63;5037015;28;20194;-73
2022/09/26 11:09:34;;;;;;;0.30;0.30;;;;;;;25.81;37.75;99033.50;5030720;28;20221;-73
2022/09/26 11:12:22;;;;;;;0.30;0.30;;;;;;;25.78;38.38;99028.53;5047278;28;20193;-73
2022/09/26 11:14:55;;;;;;;0.20;0.20;;;;;;;25.53;39.50;98980.22;5050896;28;20272;-73
2022/09/26 11:17:43;;;;;;;0.30;0.30;;;;;;;25.87;39.42;99012.69;5039068;28;20580;-73
2022/09/26 11:20:12;;;;;;;0.40;0.40;;;;;;;25.97;38.29;99008.19;5050696;28;20283;-74
2022/09/26 11:22:44;;;;;;;0.23;0.23;;;;;;;26.11;40.43;98994.47;5033319;28;20197;-74
2022/09/26 11:25:16;;;;;;;0.30;0.30;;;;;;;26.26;39.00;98993.94;5031266;28;20572;-74
2022/09/26 11:27:49;;;;;;;0.28;0.28;;;;;;;26.28;38.25;99002.50;5030920;28;20430;-73
2022/09/26 11:30:19;;;;;;;0.23;0.23;;;;;;;26.31;39.16;99008.25;5048251;28;20695;-73
2022/09/26 11:32:51;;;;;;;0.23;0.23;;;;;;;26.28;37.12;99011.19;5035451;28;20580;-73
2022/09/26 11:35:42;;;;;;;0.20;0.20;;;;;;;26.25;37.27;99006.25;5029451;28;20193;-74
2022/09/26 11:38:20;;;;;;;0.37;0.37;;;;;;;26.24;37.73;99009.84;5046226;28;20225;-73
2022/09/26 11:41:06;;;;;;;0.30;0.30;;;;;;;26.23;38.67;99012.66;5040305;28;20193;-74
2022/09/26 11:43:47;;;;;;;0.27;0.27;;;;;;;26.31;38.00;99010.06;5040984;28;20208;-74
2022/09/26 11:46:45;;;;;;;0.20;0.20;;;;;;;26.29;37.76;98997.09;5039887;28;20201;-73
2022/09/26 11:49:59;;;;;;;0.50;0.50;;;;;;;26.28;37.35;98994.59;5045576;28;20216;-74
2022/09/26 11:52:41;;;;;;;0.20;0.20;;;;;;;26.24;36.91;98978.31;5020154;28;20217;-73
2022/09/26 11:55:19;;;;;;;0.10;0.10;;;;;;;26.29;37.95;98985.75;5048616;28;20197;-74
2022/09/26 11:57:57;;;;;;;0.20;0.20;;;;;;;26.07;38.26;98966.06;5048509;28;20207;-74
2022/09/26 12:00:26;;;;;;;0.20;0.20;;;;;;;26.03;39.47;98970.78;5049963;28;20189;-74
2022/09/26 12:03:35;;;;;;;0.30;0.30;;;;;;;26.02;38.35;98956.00;5032141;28;20604;-73